createdAt,value
2023-05-16T00:00:53.558Z,51.41
2023-05-16T00:03:24.295Z,51.36
2023-05-16T00:05:56.126Z,51.71
2023-05-16T00:08:26.803Z,51.58
2023-05-16T00:10:57.624Z,51.72
2023-05-16T00:13:28.371Z,51.52
2023-05-16T00:15:59.501Z,51.54
2023-05-16T00:18:30.493Z,51.63
2023-05-16T00:21:01.815Z,51.50
2023-05-16T00:23:32.514Z,51.57
2023-05-16T00:26:03.816Z,51.63
2023-05-16T00:28:34.500Z,51.87
2023-05-16T00:31:05.778Z,51.81
2023-05-16T00:33:36.964Z,51.64
2023-05-16T00:36:08.758Z,51.90
2023-05-16T00:38:39.455Z,51.81
2023-05-16T00:41:10.269Z,51.72
2023-05-16T00:43:41.110Z,51.87
2023-05-16T00:46:11.776Z,51.87
2023-05-16T00:48:42.451Z,51.83
2023-05-16T00:51:13.618Z,51.85
2023-05-16T00:53:44.581Z,52.01
2023-05-16T00:56:15.316Z,51.97
2023-05-16T00:58:46.361Z,51.93
2023-05-16T01:01:17.345Z,52.01
2023-05-16T01:03:48.928Z,52.08
2023-05-16T01:06:19.910Z,52.14
2023-05-16T01:08:51.062Z,52.12
2023-05-16T01:11:28.247Z,52.29
2023-05-16T01:14:13.239Z,52.13
2023-05-16T01:16:48.952Z,52.22
2023-05-16T01:19:34.494Z,52.34
2023-05-16T01:22:16.432Z,52.23
2023-05-16T01:25:04.042Z,52.29
2023-05-16T01:27:36.794Z,52.27
2023-05-16T01:30:17.543Z,52.39
2023-05-16T01:32:48.468Z,52.37
2023-05-16T01:35:20.336Z,52.25
2023-05-16T01:37:57.737Z,52.36
2023-05-16T01:40:37.860Z,52.29
2023-05-16T01:43:14.327Z,52.16
2023-05-16T01:45:52.080Z,52.17
2023-05-16T01:48:28.417Z,52.26
2023-05-16T01:51:01.462Z,52.43
2023-05-16T01:53:38.178Z,52.33
2023-05-16T01:56:16.773Z,52.13
2023-05-16T01:58:49.738Z,52.24
2023-05-16T02:01:20.516Z,52.20
2023-05-16T02:03:51.772Z,52.27
2023-05-16T02:06:23.510Z,52.05
2023-05-16T02:08:54.537Z,52.14
2023-05-16T02:11:25.160Z,52.29
2023-05-16T02:13:55.801Z,52.26
2023-05-16T02:16:26.586Z,52.11
2023-05-16T02:18:57.303Z,52.30
2023-05-16T02:21:27.931Z,52.20
2023-05-16T02:23:58.641Z,52.17
2023-05-16T02:26:29.298Z,52.32
2023-05-16T02:28:59.923Z,52.11
2023-05-16T02:31:32.673Z,52.31
2023-05-16T02:34:03.915Z,52.23
2023-05-16T02:36:36.168Z,52.18
2023-05-16T02:39:07.723Z,52.17
2023-05-16T02:41:38.525Z,52.33
2023-05-16T02:44:09.456Z,52.27
2023-05-16T02:46:40.250Z,52.28
2023-05-16T02:49:11.057Z,52.23
2023-05-16T02:51:41.769Z,52.40
2023-05-16T02:54:12.429Z,52.25
2023-05-16T02:56:43.152Z,52.50
2023-05-16T02:59:14.114Z,52.57
2023-05-16T03:01:44.748Z,52.37
2023-05-16T03:04:15.734Z,52.17
2023-05-16T03:06:46.865Z,52.46
2023-05-16T03:09:17.792Z,52.45
2023-05-16T03:11:49.954Z,52.21
2023-05-16T03:14:20.800Z,52.50
2023-05-16T03:16:51.852Z,52.45
2023-05-16T03:19:22.593Z,52.41
2023-05-16T03:21:53.392Z,52.67
2023-05-16T03:24:24.100Z,52.42
2023-05-16T03:26:54.900Z,52.37
2023-05-16T03:29:26.262Z,52.44
2023-05-16T03:31:57.559Z,52.41
2023-05-16T03:34:28.295Z,52.43
2023-05-16T03:36:58.890Z,52.51
2023-05-16T03:39:29.523Z,52.52
2023-05-16T03:42:00.189Z,52.70
2023-05-16T03:44:31.730Z,52.58
2023-05-16T03:47:02.539Z,52.56
2023-05-16T03:49:33.304Z,52.58
2023-05-16T03:52:04.221Z,51.93
2023-05-16T03:54:34.863Z,51.54
2023-05-16T03:57:06.152Z,51.74
2023-05-16T03:59:36.891Z,51.95
2023-05-16T04:02:07.919Z,51.80
2023-05-16T04:04:38.591Z,51.83
2023-05-16T04:07:09.139Z,51.58
2023-05-16T04:09:39.877Z,51.55
2023-05-16T04:12:11.347Z,51.49
2023-05-16T04:14:42.031Z,51.41
2023-05-16T04:17:13.061Z,51.11
2023-05-16T04:19:43.817Z,51.33
2023-05-16T04:22:14.626Z,51.14
2023-05-16T04:24:45.492Z,50.88
2023-05-16T04:27:16.196Z,50.77
2023-05-16T04:29:47.039Z,50.54
2023-05-16T04:32:18.694Z,50.58
2023-05-16T04:34:53.458Z,50.62
2023-05-16T04:37:24.367Z,50.57
2023-05-16T04:39:55.764Z,50.45
2023-05-16T04:42:27.002Z,50.20
2023-05-16T04:44:58.411Z,50.30
2023-05-16T04:47:29.425Z,50.16
2023-05-16T04:50:00.897Z,50.23
2023-05-16T04:52:31.791Z,50.17
2023-05-16T04:55:02.682Z,50.17
2023-05-16T04:57:33.561Z,50.16
2023-05-16T05:00:08.083Z,50.00
2023-05-16T05:02:39.354Z,49.91
2023-05-16T05:05:12.034Z,49.94
2023-05-16T05:07:43.328Z,49.99
2023-05-16T05:10:14.902Z,49.90
2023-05-16T05:12:45.611Z,49.89
2023-05-16T05:15:16.503Z,49.93
2023-05-16T05:17:47.448Z,49.94
2023-05-16T05:20:18.806Z,49.97
2023-05-16T05:22:49.749Z,49.76
2023-05-16T05:25:21.183Z,49.99
2023-05-16T05:27:52.254Z,49.92
2023-05-16T05:30:23.484Z,49.84
2023-05-16T05:32:55.000Z,49.70
2023-05-16T05:35:26.344Z,49.69
2023-05-16T05:37:57.433Z,49.72
2023-05-16T05:40:28.345Z,49.63
2023-05-16T05:42:59.122Z,49.73
2023-05-16T05:45:30.321Z,49.71
2023-05-16T05:48:01.375Z,49.61
2023-05-16T05:50:32.396Z,49.49
2023-05-16T05:53:03.391Z,49.60
2023-05-16T05:55:34.257Z,49.79
2023-05-16T05:58:07.040Z,49.58
2023-05-16T06:00:38.692Z,49.61
2023-05-16T06:03:09.573Z,49.50
2023-05-16T06:05:40.369Z,49.68
2023-05-16T06:08:11.326Z,49.52
2023-05-16T06:10:42.564Z,49.63
2023-05-16T06:13:13.397Z,49.70
2023-05-16T06:15:44.247Z,49.52
2023-05-16T06:18:15.094Z,49.51
2023-05-16T06:20:45.900Z,49.47
2023-05-16T06:23:17.447Z,49.49
2023-05-16T06:25:49.427Z,49.47
2023-05-16T06:28:20.182Z,49.68
2023-05-16T06:30:52.054Z,49.67
2023-05-16T06:33:23.314Z,49.63
2023-05-16T06:35:54.655Z,49.62
2023-05-16T06:38:25.897Z,49.59
2023-05-16T06:40:56.737Z,49.48
2023-05-16T06:43:27.684Z,49.67
2023-05-16T06:45:58.448Z,49.77
2023-05-16T06:48:29.626Z,49.70
2023-05-16T06:51:00.733Z,49.68
2023-05-16T06:53:31.551Z,49.79
2023-05-16T06:56:02.802Z,49.74
2023-05-16T06:58:33.871Z,49.72
2023-05-16T07:01:05.019Z,49.75
2023-05-16T07:03:35.987Z,49.72
2023-05-16T07:06:07.133Z,49.59
2023-05-16T07:08:38.241Z,49.72
2023-05-16T07:11:11.638Z,49.89
2023-05-16T07:13:42.557Z,49.76
2023-05-16T07:16:13.423Z,49.80
2023-05-16T07:18:44.442Z,49.90
2023-05-16T07:21:15.444Z,49.85
2023-05-16T07:23:46.338Z,49.80
2023-05-16T07:26:17.790Z,49.88
2023-05-16T07:28:48.539Z,49.94
2023-05-16T07:31:19.712Z,49.87
2023-05-16T07:33:50.735Z,50.00
2023-05-16T07:36:21.439Z,49.85
2023-05-16T07:38:52.343Z,50.04
2023-05-16T07:41:23.089Z,49.90
2023-05-16T07:43:53.883Z,49.93
2023-05-16T07:46:24.769Z,49.92
2023-05-16T07:48:55.573Z,49.88
2023-05-16T07:51:26.435Z,49.99
2023-05-16T07:53:57.258Z,49.98
2023-05-16T07:56:28.063Z,49.88
2023-05-16T07:58:58.957Z,50.01
2023-05-16T08:01:30.083Z,49.97
2023-05-16T08:04:01.149Z,49.96
2023-05-16T08:06:32.130Z,50.06
2023-05-16T08:09:03.447Z,49.96
2023-05-16T08:11:34.495Z,49.99
2023-05-16T08:14:06.292Z,50.08
2023-05-16T08:16:37.473Z,49.92
2023-05-16T08:19:08.575Z,49.91
2023-05-16T08:21:39.747Z,49.95
2023-05-16T08:24:11.412Z,50.10
2023-05-16T08:26:42.613Z,50.08
2023-05-16T08:29:13.564Z,50.07
2023-05-16T08:31:44.413Z,50.13
2023-05-16T08:34:15.334Z,50.21
2023-05-16T08:36:46.723Z,50.11
2023-05-16T08:39:17.697Z,50.14
2023-05-16T08:41:48.566Z,50.06
2023-05-16T08:44:22.097Z,50.17
2023-05-16T08:46:55.311Z,50.08
2023-05-16T08:49:28.608Z,50.06
2023-05-16T08:52:01.919Z,50.04
2023-05-16T08:54:33.548Z,50.14
2023-05-16T08:57:05.263Z,50.17
2023-05-16T08:59:36.545Z,50.25
2023-05-16T09:02:08.244Z,50.20
2023-05-16T09:04:42.502Z,50.05
2023-05-16T09:07:13.646Z,50.12
2023-05-16T09:09:44.819Z,50.23
2023-05-16T09:12:15.822Z,50.27
2023-05-16T09:14:47.564Z,50.12
2023-05-16T09:17:23.088Z,50.29
2023-05-16T09:20:09.755Z,50.19
2023-05-16T09:22:41.292Z,50.14
2023-05-16T09:25:29.368Z,50.30
2023-05-16T09:28:03.982Z,50.38
2023-05-16T09:30:37.337Z,50.28
2023-05-16T09:33:09.906Z,50.26
2023-05-16T09:35:45.360Z,50.38
2023-05-16T09:38:20.528Z,50.24
2023-05-16T09:40:51.913Z,50.31
2023-05-16T09:43:26.436Z,50.38
2023-05-16T09:46:00.517Z,50.28
2023-05-16T09:48:31.404Z,50.32
2023-05-16T09:51:05.472Z,50.33
2023-05-16T09:53:36.716Z,50.27
2023-05-16T09:56:09.483Z,50.21
2023-05-16T09:58:42.273Z,50.18
2023-05-16T10:01:13.754Z,50.06
2023-05-16T10:03:45.245Z,50.18
2023-05-16T10:06:17.387Z,50.41
2023-05-16T10:08:48.924Z,50.15
2023-05-16T10:11:22.115Z,50.22
2023-05-16T10:13:54.601Z,50.12
2023-05-16T10:16:27.414Z,50.16
2023-05-16T10:18:59.432Z,50.33
2023-05-16T10:21:34.221Z,50.24
2023-05-16T10:24:08.820Z,50.30
2023-05-16T10:26:39.715Z,50.31
2023-05-16T10:29:11.580Z,50.30
2023-05-16T10:31:43.006Z,50.44
2023-05-16T10:34:15.032Z,50.37
2023-05-16T10:36:49.725Z,50.36
2023-05-16T10:39:21.589Z,50.35
2023-05-16T10:41:52.784Z,50.29
2023-05-16T10:44:23.825Z,50.32
2023-05-16T10:46:54.832Z,50.24
2023-05-16T10:49:27.840Z,50.27
2023-05-16T10:52:10.724Z,50.25
2023-05-16T10:54:43.597Z,50.39
2023-05-16T10:57:21.004Z,50.23
2023-05-16T10:59:54.374Z,50.29
2023-05-16T11:02:33.209Z,50.14
2023-05-16T11:05:04.843Z,50.25
2023-05-16T11:07:37.478Z,50.19
2023-05-16T11:10:16.151Z,50.26
2023-05-16T11:12:53.055Z,50.42
2023-05-16T11:15:30.322Z,50.18
2023-05-16T11:18:12.036Z,50.36
2023-05-16T11:20:43.634Z,50.33
2023-05-16T11:23:26.452Z,50.29
2023-05-16T11:26:00.828Z,50.34
2023-05-16T11:28:31.740Z,50.32
2023-05-16T11:31:05.489Z,50.15
2023-05-16T11:33:35.779Z,50.19
2023-05-16T11:36:16.229Z,50.20
2023-05-16T11:38:47.940Z,50.29
2023-05-16T11:41:21.282Z,50.20
2023-05-16T11:43:52.408Z,50.22
2023-05-16T11:46:24.074Z,50.42
2023-05-16T11:48:55.092Z,50.36
2023-05-16T11:51:26.170Z,50.57
2023-05-16T11:53:57.862Z,50.36
2023-05-16T11:56:29.029Z,50.29
2023-05-16T11:59:01.045Z,50.39
2023-05-16T12:01:37.942Z,50.31
2023-05-16T12:04:13.909Z,50.22
2023-05-16T12:06:45.826Z,50.33
2023-05-16T12:09:18.550Z,50.30
2023-05-16T12:11:49.642Z,50.47
2023-05-16T12:14:21.687Z,50.50
2023-05-16T12:16:55.628Z,50.33
2023-05-16T12:19:27.509Z,50.30
2023-05-16T12:21:59.044Z,50.43
2023-05-16T12:24:34.186Z,50.36
2023-05-16T12:27:05.479Z,50.43
2023-05-16T12:29:36.673Z,50.35
2023-05-16T12:32:10.861Z,50.30
2023-05-16T12:34:50.240Z,50.50
2023-05-16T12:37:22.517Z,50.46
2023-05-16T12:39:53.478Z,50.31
2023-05-16T12:42:24.227Z,50.36
2023-05-16T12:44:58.332Z,50.33
2023-05-16T12:47:39.353Z,50.26
2023-05-16T12:50:14.850Z,50.40
2023-05-16T12:52:53.272Z,50.36
2023-05-16T12:55:25.163Z,50.33
2023-05-16T12:57:58.338Z,50.32
2023-05-16T13:00:29.715Z,50.42
2023-05-16T13:03:01.259Z,50.36
2023-05-16T13:05:32.182Z,50.45
2023-05-16T13:08:03.457Z,50.46
2023-05-16T13:10:34.301Z,50.33
2023-05-16T13:13:05.180Z,50.50
2023-05-16T13:15:36.094Z,50.66
2023-05-16T13:18:07.027Z,50.62
2023-05-16T13:20:39.053Z,50.92
2023-05-16T13:23:09.834Z,50.97
2023-05-16T13:25:41.143Z,51.07
2023-05-16T13:28:12.284Z,50.85
2023-05-16T13:30:43.326Z,51.18
2023-05-16T13:33:14.396Z,51.14
2023-05-16T13:35:46.340Z,51.07
2023-05-16T13:38:18.956Z,51.05
2023-05-16T13:40:50.552Z,51.33
2023-05-16T13:43:21.731Z,51.09
2023-05-16T13:45:53.412Z,50.97
2023-05-16T13:48:25.226Z,51.05
2023-05-16T13:50:56.296Z,50.99
2023-05-16T13:53:27.454Z,51.03
2023-05-16T13:55:58.482Z,51.09
2023-05-16T13:58:29.772Z,50.97
2023-05-16T14:01:00.958Z,50.87
2023-05-16T14:03:32.517Z,50.88
2023-05-16T14:06:04.733Z,50.89
2023-05-16T14:08:35.884Z,50.88
2023-05-16T14:11:07.645Z,50.91
2023-05-16T14:13:40.547Z,50.97
2023-05-16T14:16:13.458Z,51.11
2023-05-16T14:18:45.022Z,51.15
2023-05-16T14:21:16.116Z,51.07
2023-05-16T14:23:47.595Z,51.27
2023-05-16T14:26:22.728Z,51.11
2023-05-16T14:28:54.014Z,51.35
2023-05-16T14:31:25.391Z,51.28
2023-05-16T14:33:59.555Z,51.32
2023-05-16T14:36:33.667Z,51.35
2023-05-16T14:39:05.044Z,51.29
2023-05-16T14:41:38.487Z,51.41
2023-05-16T14:44:10.457Z,51.50
2023-05-16T14:46:42.080Z,51.27
2023-05-16T14:49:13.677Z,51.36
2023-05-16T14:51:49.394Z,51.31
2023-05-16T14:54:21.443Z,51.37
2023-05-16T14:56:52.664Z,51.32
2023-05-16T14:59:23.584Z,51.44
2023-05-16T15:01:55.065Z,51.48
2023-05-16T15:04:26.330Z,51.45
2023-05-16T15:06:57.481Z,51.58
2023-05-16T15:09:28.905Z,51.60
2023-05-16T15:12:00.006Z,51.70
2023-05-16T15:14:31.022Z,51.43
2023-05-16T15:17:02.002Z,51.60
2023-05-16T15:19:32.990Z,51.72
2023-05-16T15:22:08.027Z,51.73
2023-05-16T15:24:39.183Z,51.55
2023-05-16T15:27:10.552Z,51.40
2023-05-16T15:29:42.381Z,51.24
2023-05-16T15:32:14.685Z,51.38
2023-05-16T15:34:46.341Z,51.27
2023-05-16T15:37:17.861Z,51.51
2023-05-16T15:39:51.916Z,51.39
2023-05-16T15:42:23.465Z,51.36
2023-05-16T15:44:54.890Z,51.48
2023-05-16T15:47:28.462Z,51.46
2023-05-16T15:49:59.714Z,51.64
2023-05-16T15:52:30.967Z,51.41
2023-05-16T15:55:02.008Z,51.37
2023-05-16T15:57:33.230Z,51.27
2023-05-16T16:00:04.551Z,51.45
2023-05-16T16:02:35.652Z,51.45
2023-05-16T16:05:07.919Z,51.26
2023-05-16T16:07:38.966Z,51.30
2023-05-16T16:10:12.481Z,51.37
2023-05-16T16:12:44.494Z,51.19
2023-05-16T16:15:15.693Z,51.03
2023-05-16T16:17:47.205Z,51.12
2023-05-16T16:20:18.535Z,50.95
2023-05-16T16:22:49.978Z,51.05
2023-05-16T16:25:21.072Z,50.96
2023-05-16T16:27:51.995Z,50.95
2023-05-16T16:30:23.312Z,51.01
2023-05-16T16:32:55.043Z,50.98
2023-05-16T16:35:26.581Z,50.82
2023-05-16T16:38:06.130Z,50.86
2023-05-16T16:40:36.303Z,50.96
2023-05-16T16:43:07.963Z,50.78
2023-05-16T16:45:39.798Z,50.64
2023-05-16T16:48:11.854Z,50.67
2023-05-16T16:50:43.453Z,50.52
2023-05-16T16:53:15.361Z,50.57
2023-05-16T16:55:47.571Z,50.52
2023-05-16T16:58:18.747Z,50.48
2023-05-16T17:00:51.612Z,50.62
2023-05-16T17:03:23.637Z,50.74
2023-05-16T17:05:54.818Z,50.51
2023-05-16T17:08:26.287Z,50.55
2023-05-16T17:11:00.026Z,50.17
2023-05-16T17:13:33.810Z,50.27
2023-05-16T17:16:05.384Z,50.49
2023-05-16T17:18:38.183Z,50.39
2023-05-16T17:21:15.366Z,50.34
2023-05-16T17:23:46.551Z,50.25
2023-05-16T17:26:18.180Z,50.39
2023-05-16T17:28:49.892Z,50.22
2023-05-16T17:31:21.223Z,50.24
2023-05-16T17:33:53.428Z,50.37
2023-05-16T17:36:25.096Z,50.43
2023-05-16T17:38:56.641Z,50.37
2023-05-16T17:41:27.798Z,50.37
2023-05-16T17:43:59.027Z,50.35
2023-05-16T17:46:30.159Z,50.39
2023-05-16T17:49:01.493Z,50.20
2023-05-16T17:51:46.461Z,50.36
2023-05-16T17:54:18.651Z,50.17
2023-05-16T17:56:51.138Z,50.15
2023-05-16T17:59:22.219Z,50.46
2023-05-16T18:01:53.427Z,50.33
2023-05-16T18:04:25.394Z,50.28
2023-05-16T18:06:56.725Z,50.35
2023-05-16T18:09:28.927Z,50.38
2023-05-16T18:12:00.531Z,50.32
2023-05-16T18:14:31.723Z,50.22
2023-05-16T18:17:02.956Z,50.42
2023-05-16T18:19:34.309Z,50.16
2023-05-16T18:22:08.913Z,50.15
2023-05-16T18:24:41.016Z,50.10
2023-05-16T18:27:12.110Z,50.13
2023-05-16T18:29:43.584Z,50.09
2023-05-16T18:32:14.927Z,50.19
2023-05-16T18:34:47.059Z,50.35
2023-05-16T18:37:18.224Z,50.16
2023-05-16T18:39:49.818Z,50.22
2023-05-16T18:42:21.135Z,50.03
2023-05-16T18:44:52.177Z,49.98
2023-05-16T18:47:23.404Z,50.01
2023-05-16T18:49:54.857Z,50.16
2023-05-16T18:52:26.057Z,50.11
2023-05-16T18:54:57.570Z,50.17
2023-05-16T18:57:28.814Z,49.95
2023-05-16T19:00:00.161Z,49.96
2023-05-16T19:02:41.606Z,50.08
2023-05-16T19:05:14.507Z,49.93
2023-05-16T19:07:46.040Z,50.10
2023-05-16T19:10:17.508Z,49.99
2023-05-16T19:12:49.322Z,49.90
2023-05-16T19:15:20.445Z,49.65
2023-05-16T19:17:51.781Z,49.82
2023-05-16T19:20:24.278Z,49.70
2023-05-16T19:22:56.075Z,49.62
2023-05-16T19:25:28.135Z,49.56
2023-05-16T19:27:59.473Z,49.62
2023-05-16T19:30:30.809Z,49.51
2023-05-16T19:33:01.898Z,49.73
2023-05-16T19:35:33.256Z,49.84
2023-05-16T19:38:04.208Z,49.75
2023-05-16T19:40:35.812Z,49.78
2023-05-16T19:43:07.017Z,49.81
2023-05-16T19:45:38.760Z,49.81
2023-05-16T19:48:10.690Z,50.06
2023-05-16T19:50:41.731Z,50.12
2023-05-16T19:53:13.177Z,50.01
2023-05-16T19:55:44.164Z,49.90
2023-05-16T19:58:15.021Z,49.97
2023-05-16T20:00:47.186Z,50.16
2023-05-16T20:03:18.446Z,50.13
2023-05-16T20:05:49.995Z,50.11
2023-05-16T20:08:21.678Z,49.98
2023-05-16T20:10:54.232Z,50.00
2023-05-16T20:13:26.208Z,50.38
2023-05-16T20:15:58.077Z,50.15
2023-05-16T20:18:32.146Z,50.02
2023-05-16T20:21:03.330Z,50.05
2023-05-16T20:23:35.224Z,50.04
2023-05-16T20:26:06.650Z,50.10
2023-05-16T20:28:37.557Z,50.14
2023-05-16T20:31:08.526Z,50.15
2023-05-16T20:33:39.527Z,50.07
2023-05-16T20:36:10.617Z,50.25
2023-05-16T20:38:41.521Z,50.25
2023-05-16T20:41:12.625Z,50.08
2023-05-16T20:43:43.716Z,50.18
2023-05-16T20:46:14.777Z,50.26
2023-05-16T20:48:45.770Z,50.37
2023-05-16T20:51:17.123Z,50.42
2023-05-16T20:53:48.411Z,50.45
2023-05-16T20:56:19.445Z,50.47
2023-05-16T20:58:50.263Z,50.46
2023-05-16T21:01:22.442Z,50.65
2023-05-16T21:03:53.718Z,50.62
2023-05-16T21:06:24.721Z,50.68
2023-05-16T21:08:56.113Z,50.61
2023-05-16T21:11:28.899Z,50.67
2023-05-16T21:13:59.956Z,50.57
2023-05-16T21:16:31.353Z,50.74
2023-05-16T21:19:04.378Z,50.50
2023-05-16T21:21:35.850Z,50.69
2023-05-16T21:24:07.623Z,50.78
2023-05-16T21:26:38.617Z,50.68
2023-05-16T21:29:09.374Z,50.72
2023-05-16T21:31:40.543Z,50.74
2023-05-16T21:34:11.737Z,50.68
2023-05-16T21:36:45.149Z,50.90
2023-05-16T21:39:16.214Z,50.90
2023-05-16T21:41:47.031Z,50.92
2023-05-16T21:44:18.624Z,50.85
2023-05-16T21:46:49.603Z,50.89
2023-05-16T21:49:20.795Z,50.88
2023-05-16T21:51:51.764Z,50.91
2023-05-16T21:54:22.560Z,50.70
2023-05-16T21:56:53.378Z,50.82
2023-05-16T21:59:24.428Z,50.85
2023-05-16T22:01:57.411Z,50.92
2023-05-16T22:04:28.693Z,51.02
2023-05-16T22:06:59.600Z,50.91
2023-05-16T22:09:30.842Z,50.95
2023-05-16T22:12:01.788Z,50.89
2023-05-16T22:14:32.742Z,50.81
2023-05-16T22:17:03.781Z,51.19
2023-05-16T22:19:34.873Z,51.18
2023-05-16T22:22:06.711Z,51.20
2023-05-16T22:24:37.822Z,51.09
2023-05-16T22:27:09.095Z,51.09
2023-05-16T22:29:39.942Z,51.18
2023-05-16T22:32:11.812Z,51.01
2023-05-16T22:34:42.836Z,51.17
2023-05-16T22:37:13.583Z,51.01
2023-05-16T22:39:44.501Z,51.10
2023-05-16T22:42:15.352Z,51.01
2023-05-16T22:44:46.301Z,51.27
2023-05-16T22:47:17.027Z,51.02
2023-05-16T22:49:47.759Z,51.04
2023-05-16T22:52:18.611Z,51.32
2023-05-16T22:54:49.431Z,51.01
2023-05-16T22:57:20.182Z,51.10
2023-05-16T22:59:50.865Z,51.10
2023-05-16T23:02:21.770Z,51.04
2023-05-16T23:04:52.800Z,51.21
2023-05-16T23:07:23.825Z,51.10
2023-05-16T23:09:54.673Z,51.23
2023-05-16T23:12:26.172Z,51.05
2023-05-16T23:14:58.165Z,51.10
2023-05-16T23:17:28.883Z,51.19
2023-05-16T23:19:59.679Z,51.12
2023-05-16T23:22:30.841Z,51.18
2023-05-16T23:25:01.700Z,50.98
2023-05-16T23:27:33.126Z,51.09
2023-05-16T23:30:04.166Z,51.17
2023-05-16T23:32:34.878Z,51.15
2023-05-16T23:35:06.487Z,51.26
2023-05-16T23:37:37.405Z,51.20
2023-05-16T23:40:10.464Z,51.16
2023-05-16T23:42:41.900Z,51.11
2023-05-16T23:45:13.749Z,51.13
2023-05-16T23:47:44.905Z,51.14
2023-05-16T23:50:17.394Z,51.22
2023-05-16T23:52:48.212Z,51.21
2023-05-16T23:55:20.357Z,51.28
2023-05-16T23:57:51.105Z,51.25
